sensor_id;sensor_type;location;lat;lon;timestamp;temperature;humidity
7502;DHT22;3792;47.740;7.606;2023-07-29T00:01:48;20.00;99.90
7502;DHT22;3792;47.740;7.606;2023-07-29T00:04:16;20.00;99.90
7502;DHT22;3792;47.740;7.606;2023-07-29T00:06:44;20.00;99.90
7502;DHT22;3792;47.740;7.606;2023-07-29T00:09:11;20.00;99.90
7502;DHT22;3792;47.740;7.606;2023-07-29T00:11:38;20.00;99.90
7502;DHT22;3792;47.740;7.606;2023-07-29T00:14:05;19.90;99.90
7502;DHT22;3792;47.740;7.606;2023-07-29T00:16:32;19.90;99.90
7502;DHT22;3792;47.740;7.606;2023-07-29T00:19:02;19.90;99.90
7502;DHT22;3792;47.740;7.606;2023-07-29T00:21:29;20.00;99.90
7502;DHT22;3792;47.740;7.606;2023-07-29T00:23:56;20.00;99.90
7502;DHT22;3792;47.740;7.606;2023-07-29T00:26:24;20.00;99.90
7502;DHT22;3792;47.740;7.606;2023-07-29T00:28:54;19.90;99.90
7502;DHT22;3792;47.740;7.606;2023-07-29T00:31:21;19.90;99.90
7502;DHT22;3792;47.740;7.606;2023-07-29T00:33:48;19.90;99.90
7502;DHT22;3792;47.740;7.606;2023-07-29T00:36:17;19.90;99.90
7502;DHT22;3792;47.740;7.606;2023-07-29T00:38:44;19.90;99.90
7502;DHT22;3792;47.740;7.606;2023-07-29T00:41:11;19.90;99.90
7502;DHT22;3792;47.740;7.606;2023-07-29T00:43:39;20.00;99.90
7502;DHT22;3792;47.740;7.606;2023-07-29T00:46:07;20.00;99.90
7502;DHT22;3792;47.740;7.606;2023-07-29T00:48:35;20.00;99.90
7502;DHT22;3792;47.740;7.606;2023-07-29T00:51:02;20.00;99.90
7502;DHT22;3792;47.740;7.606;2023-07-29T00:53:31;20.00;99.90
7502;DHT22;3792;47.740;7.606;2023-07-29T00:55:58;20.00;99.90
7502;DHT22;3792;47.740;7.606;2023-07-29T00:58:25;20.00;99.90
7502;DHT22;3792;47.740;7.606;2023-07-29T01:00:52;20.00;99.90
7502;DHT22;3792;47.740;7.606;2023-07-29T01:03:19;19.80;99.90
7502;DHT22;3792;47.740;7.606;2023-07-29T01:05:56;19.80;99.90
7502;DHT22;3792;47.740;7.606;2023-07-29T01:08:33;19.80;99.90
7502;DHT22;3792;47.740;7.606;2023-07-29T01:11:11;19.80;99.90
7502;DHT22;3792;47.740;7.606;2023-07-29T01:13:44;19.90;99.90
7502;DHT22;3792;47.740;7.606;2023-07-29T01:16:19;19.90;99.90
7502;DHT22;3792;47.740;7.606;2023-07-29T01:18:50;19.90;99.90
7502;DHT22;3792;47.740;7.606;2023-07-29T01:21:20;19.90;99.90
7502;DHT22;3792;47.740;7.606;2023-07-29T01:23:52;20.00;99.90
7502;DHT22;3792;47.740;7.606;2023-07-29T01:26:19;20.00;99.90
7502;DHT22;3792;47.740;7.606;2023-07-29T01:28:46;20.00;99.90
7502;DHT22;3792;47.740;7.606;2023-07-29T01:31:18;20.10;99.90
7502;DHT22;3792;47.740;7.606;2023-07-29T01:33:56;20.10;99.90
7502;DHT22;3792;47.740;7.606;2023-07-29T01:36:27;20.10;99.90
7502;DHT22;3792;47.740;7.606;2023-07-29T01:38:58;20.20;99.90
7502;DHT22;3792;47.740;7.606;2023-07-29T01:41:26;20.20;99.90
7502;DHT22;3792;47.740;7.606;2023-07-29T01:43:54;20.20;99.90
7502;DHT22;3792;47.740;7.606;2023-07-29T01:46:23;20.20;99.90
7502;DHT22;3792;47.740;7.606;2023-07-29T01:48:50;20.10;99.90
7502;DHT22;3792;47.740;7.606;2023-07-29T01:51:17;20.10;99.90
7502;DHT22;3792;47.740;7.606;2023-07-29T01:53:44;20.10;99.90
7502;DHT22;3792;47.740;7.606;2023-07-29T01:56:12;20.10;99.90
7502;DHT22;3792;47.740;7.606;2023-07-29T01:58:39;20.10;99.90
7502;DHT22;3792;47.740;7.606;2023-07-29T02:01:06;20.10;99.90
7502;DHT22;3792;47.740;7.606;2023-07-29T02:03:34;20.10;99.90
7502;DHT22;3792;47.740;7.606;2023-07-29T02:06:01;20.10;99.90
7502;DHT22;3792;47.740;7.606;2023-07-29T02:08:28;20.10;99.90
7502;DHT22;3792;47.740;7.606;2023-07-29T02:10:55;20.10;99.90
7502;DHT22;3792;47.740;7.606;2023-07-29T02:13:23;20.10;99.90
7502;DHT22;3792;47.740;7.606;2023-07-29T02:15:50;20.10;99.90
7502;DHT22;3792;47.740;7.606;2023-07-29T02:18:17;20.10;99.90
7502;DHT22;3792;47.740;7.606;2023-07-29T02:20:44;20.10;99.90
7502;DHT22;3792;47.740;7.606;2023-07-29T02:23:15;20.10;99.90
7502;DHT22;3792;47.740;7.606;2023-07-29T02:25:43;20.10;99.90
7502;DHT22;3792;47.740;7.606;2023-07-29T02:28:10;20.10;99.90
7502;DHT22;3792;47.740;7.606;2023-07-29T02:30:42;20.00;99.90
7502;DHT22;3792;47.740;7.606;2023-07-29T02:33:10;20.00;99.90
7502;DHT22;3792;47.740;7.606;2023-07-29T02:35:37;20.00;99.90
7502;DHT22;3792;47.740;7.606;2023-07-29T02:38:04;20.00;99.90
7502;DHT22;3792;47.740;7.606;2023-07-29T02:40:31;20.00;99.90
7502;DHT22;3792;47.740;7.606;2023-07-29T02:42:58;20.00;99.90
7502;DHT22;3792;47.740;7.606;2023-07-29T02:45:25;19.90;99.90
7502;DHT22;3792;47.740;7.606;2023-07-29T02:47:54;19.90;99.90
7502;DHT22;3792;47.740;7.606;2023-07-29T02:50:21;19.90;99.90
7502;DHT22;3792;47.740;7.606;2023-07-29T02:52:48;19.90;99.90
7502;DHT22;3792;47.740;7.606;2023-07-29T02:55:15;19.80;99.90
7502;DHT22;3792;47.740;7.606;2023-07-29T02:57:42;19.80;99.90
7502;DHT22;3792;47.740;7.606;2023-07-29T03:00:10;19.80;99.90
7502;DHT22;3792;47.740;7.606;2023-07-29T03:02:37;19.90;99.90
7502;DHT22;3792;47.740;7.606;2023-07-29T03:05:07;19.90;99.90
7502;DHT22;3792;47.740;7.606;2023-07-29T03:07:34;19.90;99.90
7502;DHT22;3792;47.740;7.606;2023-07-29T03:10:01;19.90;99.90
7502;DHT22;3792;47.740;7.606;2023-07-29T03:12:28;19.90;99.90
7502;DHT22;3792;47.740;7.606;2023-07-29T03:14:55;19.90;99.90
7502;DHT22;3792;47.740;7.606;2023-07-29T03:17:22;19.90;99.90
7502;DHT22;3792;47.740;7.606;2023-07-29T03:19:49;20.00;99.90
7502;DHT22;3792;47.740;7.606;2023-07-29T03:22:17;20.00;99.90
7502;DHT22;3792;47.740;7.606;2023-07-29T03:24:45;20.00;99.90
7502;DHT22;3792;47.740;7.606;2023-07-29T03:27:12;20.00;99.90
7502;DHT22;3792;47.740;7.606;2023-07-29T03:29:40;20.00;99.90
7502;DHT22;3792;47.740;7.606;2023-07-29T03:32:07;20.00;99.90
7502;DHT22;3792;47.740;7.606;2023-07-29T03:34:34;20.00;99.90
7502;DHT22;3792;47.740;7.606;2023-07-29T03:37:02;20.00;99.90
7502;DHT22;3792;47.740;7.606;2023-07-29T03:39:30;20.00;99.90
7502;DHT22;3792;47.740;7.606;2023-07-29T03:41:57;19.90;99.90
7502;DHT22;3792;47.740;7.606;2023-07-29T03:44:24;19.90;99.90
7502;DHT22;3792;47.740;7.606;2023-07-29T03:46:51;19.90;99.90
7502;DHT22;3792;47.740;7.606;2023-07-29T03:49:19;19.90;99.90
7502;DHT22;3792;47.740;7.606;2023-07-29T03:51:46;19.90;99.90
7502;DHT22;3792;47.740;7.606;2023-07-29T03:54:13;19.90;99.90
7502;DHT22;3792;47.740;7.606;2023-07-29T03:56:41;19.90;99.90
7502;DHT22;3792;47.740;7.606;2023-07-29T03:59:08;19.90;99.90
7502;DHT22;3792;47.740;7.606;2023-07-29T04:01:35;20.00;99.90
7502;DHT22;3792;47.740;7.606;2023-07-29T04:04:02;20.00;99.90
7502;DHT22;3792;47.740;7.606;2023-07-29T04:06:29;20.00;99.90
7502;DHT22;3792;47.740;7.606;2023-07-29T04:08:57;20.00;99.90
7502;DHT22;3792;47.740;7.606;2023-07-29T04:11:25;20.00;99.90
7502;DHT22;3792;47.740;7.606;2023-07-29T04:13:53;19.90;99.90
7502;DHT22;3792;47.740;7.606;2023-07-29T04:16:20;19.90;99.90
7502;DHT22;3792;47.740;7.606;2023-07-29T04:18:47;19.90;99.90
7502;DHT22;3792;47.740;7.606;2023-07-29T04:21:14;20.00;99.90
7502;DHT22;3792;47.740;7.606;2023-07-29T04:23:41;20.00;99.90
7502;DHT22;3792;47.740;7.606;2023-07-29T04:26:08;20.00;99.90
7502;DHT22;3792;47.740;7.606;2023-07-29T04:28:35;20.10;99.90
7502;DHT22;3792;47.740;7.606;2023-07-29T04:31:03;20.10;99.90
7502;DHT22;3792;47.740;7.606;2023-07-29T04:33:30;20.10;99.90
7502;DHT22;3792;47.740;7.606;2023-07-29T04:35:57;20.10;99.90
7502;DHT22;3792;47.740;7.606;2023-07-29T04:38:29;20.10;99.90
7502;DHT22;3792;47.740;7.606;2023-07-29T04:40:56;20.10;99.90
7502;DHT22;3792;47.740;7.606;2023-07-29T04:43:27;20.10;99.90
7502;DHT22;3792;47.740;7.606;2023-07-29T04:45:54;20.10;99.90
7502;DHT22;3792;47.740;7.606;2023-07-29T04:48:23;20.10;99.90
7502;DHT22;3792;47.740;7.606;2023-07-29T04:50:50;20.20;99.90
7502;DHT22;3792;47.740;7.606;2023-07-29T04:53:17;20.10;99.90
7502;DHT22;3792;47.740;7.606;2023-07-29T04:55:45;20.10;99.90
7502;DHT22;3792;47.740;7.606;2023-07-29T04:58:12;20.10;99.90
7502;DHT22;3792;47.740;7.606;2023-07-29T05:00:39;20.10;99.90
7502;DHT22;3792;47.740;7.606;2023-07-29T05:03:06;20.10;99.90
7502;DHT22;3792;47.740;7.606;2023-07-29T05:05:34;20.10;99.90
7502;DHT22;3792;47.740;7.606;2023-07-29T05:08:01;20.20;99.90
7502;DHT22;3792;47.740;7.606;2023-07-29T05:10:29;20.20;99.90
7502;DHT22;3792;47.740;7.606;2023-07-29T05:12:56;20.30;99.90
7502;DHT22;3792;47.740;7.606;2023-07-29T05:15:23;20.40;99.90
7502;DHT22;3792;47.740;7.606;2023-07-29T05:17:50;20.40;99.90
7502;DHT22;3792;47.740;7.606;2023-07-29T05:20:17;20.30;99.90
7502;DHT22;3792;47.740;7.606;2023-07-29T05:22:46;20.30;99.90
7502;DHT22;3792;47.740;7.606;2023-07-29T05:25:13;20.40;99.90
7502;DHT22;3792;47.740;7.606;2023-07-29T05:27:40;20.40;99.90
7502;DHT22;3792;47.740;7.606;2023-07-29T05:30:08;20.30;99.90
7502;DHT22;3792;47.740;7.606;2023-07-29T05:32:35;20.40;99.90
7502;DHT22;3792;47.740;7.606;2023-07-29T05:35:02;20.40;99.90
7502;DHT22;3792;47.740;7.606;2023-07-29T05:37:29;20.40;99.90
7502;DHT22;3792;47.740;7.606;2023-07-29T05:39:58;20.50;99.90
7502;DHT22;3792;47.740;7.606;2023-07-29T05:42:25;20.60;99.90
7502;DHT22;3792;47.740;7.606;2023-07-29T05:44:52;20.60;99.90
7502;DHT22;3792;47.740;7.606;2023-07-29T05:47:22;20.70;99.90
7502;DHT22;3792;47.740;7.606;2023-07-29T05:49:50;20.80;99.90
7502;DHT22;3792;47.740;7.606;2023-07-29T05:52:17;20.80;99.90
7502;DHT22;3792;47.740;7.606;2023-07-29T05:54:44;20.90;99.90
7502;DHT22;3792;47.740;7.606;2023-07-29T05:57:13;21.00;99.90
7502;DHT22;3792;47.740;7.606;2023-07-29T05:59:40;21.10;99.90
7502;DHT22;3792;47.740;7.606;2023-07-29T06:02:07;21.20;99.90
7502;DHT22;3792;47.740;7.606;2023-07-29T06:04:34;21.20;99.90
7502;DHT22;3792;47.740;7.606;2023-07-29T06:07:01;21.30;99.90
7502;DHT22;3792;47.740;7.606;2023-07-29T06:09:28;21.30;99.90
7502;DHT22;3792;47.740;7.606;2023-07-29T06:11:56;21.30;99.90
7502;DHT22;3792;47.740;7.606;2023-07-29T06:14:24;21.40;99.90
7502;DHT22;3792;47.740;7.606;2023-07-29T06:16:51;21.40;99.90
7502;DHT22;3792;47.740;7.606;2023-07-29T06:19:19;21.50;99.90
7502;DHT22;3792;47.740;7.606;2023-07-29T06:21:46;21.60;99.90
7502;DHT22;3792;47.740;7.606;2023-07-29T06:24:14;21.60;99.90
7502;DHT22;3792;47.740;7.606;2023-07-29T06:26:41;21.70;99.90
7502;DHT22;3792;47.740;7.606;2023-07-29T06:29:09;21.80;99.90
7502;DHT22;3792;47.740;7.606;2023-07-29T06:31:50;21.80;99.90
7502;DHT22;3792;47.740;7.606;2023-07-29T06:34:18;21.90;99.90
7502;DHT22;3792;47.740;7.606;2023-07-29T06:36:45;21.90;99.90
7502;DHT22;3792;47.740;7.606;2023-07-29T06:39:12;21.90;99.90
7502;DHT22;3792;47.740;7.606;2023-07-29T06:41:39;22.00;99.90
7502;DHT22;3792;47.740;7.606;2023-07-29T06:44:06;22.00;99.90
7502;DHT22;3792;47.740;7.606;2023-07-29T06:46:34;22.00;99.90
7502;DHT22;3792;47.740;7.606;2023-07-29T06:49:02;22.00;99.90
7502;DHT22;3792;47.740;7.606;2023-07-29T06:51:29;22.00;99.90
7502;DHT22;3792;47.740;7.606;2023-07-29T06:53:59;22.10;99.90
7502;DHT22;3792;47.740;7.606;2023-07-29T06:56:27;22.10;99.90
7502;DHT22;3792;47.740;7.606;2023-07-29T06:58:54;22.20;99.90
7502;DHT22;3792;47.740;7.606;2023-07-29T07:01:35;22.40;99.90
7502;DHT22;3792;47.740;7.606;2023-07-29T07:04:14;22.50;99.90
7502;DHT22;3792;47.740;7.606;2023-07-29T07:06:42;22.50;99.90
7502;DHT22;3792;47.740;7.606;2023-07-29T07:09:09;22.60;99.90
7502;DHT22;3792;47.740;7.606;2023-07-29T07:11:36;22.50;99.90
7502;DHT22;3792;47.740;7.606;2023-07-29T07:14:03;22.60;99.90
7502;DHT22;3792;47.740;7.606;2023-07-29T07:16:30;22.60;99.90
7502;DHT22;3792;47.740;7.606;2023-07-29T07:18:57;22.70;99.90
7502;DHT22;3792;47.740;7.606;2023-07-29T07:21:25;22.80;99.90
7502;DHT22;3792;47.740;7.606;2023-07-29T07:23:52;22.80;99.90
7502;DHT22;3792;47.740;7.606;2023-07-29T07:26:19;22.90;99.90
7502;DHT22;3792;47.740;7.606;2023-07-29T07:28:46;22.90;99.90
7502;DHT22;3792;47.740;7.606;2023-07-29T07:31:13;23.00;99.90
7502;DHT22;3792;47.740;7.606;2023-07-29T07:33:44;23.20;99.90
7502;DHT22;3792;47.740;7.606;2023-07-29T07:36:11;23.30;99.90
7502;DHT22;3792;47.740;7.606;2023-07-29T07:38:40;23.40;99.90
7502;DHT22;3792;47.740;7.606;2023-07-29T07:41:07;23.50;99.90
7502;DHT22;3792;47.740;7.606;2023-07-29T07:43:34;23.50;99.90
7502;DHT22;3792;47.740;7.606;2023-07-29T07:46:03;23.60;99.90
7502;DHT22;3792;47.740;7.606;2023-07-29T07:48:30;23.50;99.90
7502;DHT22;3792;47.740;7.606;2023-07-29T07:50:58;23.50;99.90
7502;DHT22;3792;47.740;7.606;2023-07-29T07:53:26;23.50;99.90
7502;DHT22;3792;47.740;7.606;2023-07-29T07:55:55;23.50;99.90
7502;DHT22;3792;47.740;7.606;2023-07-29T07:58:22;23.50;99.90
7502;DHT22;3792;47.740;7.606;2023-07-29T08:00:49;23.40;99.90
7502;DHT22;3792;47.740;7.606;2023-07-29T08:03:17;23.50;99.90
7502;DHT22;3792;47.740;7.606;2023-07-29T08:05:44;23.50;99.90
7502;DHT22;3792;47.740;7.606;2023-07-29T08:08:11;23.60;99.90
7502;DHT22;3792;47.740;7.606;2023-07-29T08:10:38;23.60;99.90
7502;DHT22;3792;47.740;7.606;2023-07-29T08:13:07;23.60;99.90
7502;DHT22;3792;47.740;7.606;2023-07-29T08:15:34;23.60;99.90
7502;DHT22;3792;47.740;7.606;2023-07-29T08:18:01;23.80;99.90
7502;DHT22;3792;47.740;7.606;2023-07-29T08:20:28;23.70;99.90
7502;DHT22;3792;47.740;7.606;2023-07-29T08:22:55;23.80;99.90
7502;DHT22;3792;47.740;7.606;2023-07-29T08:25:22;24.00;99.90
7502;DHT22;3792;47.740;7.606;2023-07-29T08:27:49;23.90;99.90
7502;DHT22;3792;47.740;7.606;2023-07-29T08:30:17;23.90;99.90
7502;DHT22;3792;47.740;7.606;2023-07-29T08:32:45;23.90;99.90
7502;DHT22;3792;47.740;7.606;2023-07-29T08:35:12;24.00;99.90
7502;DHT22;3792;47.740;7.606;2023-07-29T08:37:39;24.00;99.90
7502;DHT22;3792;47.740;7.606;2023-07-29T08:40:07;24.00;99.90
7502;DHT22;3792;47.740;7.606;2023-07-29T08:42:34;23.90;99.90
7502;DHT22;3792;47.740;7.606;2023-07-29T08:45:07;23.80;99.90
7502;DHT22;3792;47.740;7.606;2023-07-29T08:47:36;23.80;99.90
7502;DHT22;3792;47.740;7.606;2023-07-29T08:50:04;23.80;99.90
7502;DHT22;3792;47.740;7.606;2023-07-29T08:52:32;23.80;99.90
7502;DHT22;3792;47.740;7.606;2023-07-29T08:55:00;23.80;99.90
7502;DHT22;3792;47.740;7.606;2023-07-29T08:57:28;23.90;99.90
7502;DHT22;3792;47.740;7.606;2023-07-29T08:59:56;24.00;99.90
7502;DHT22;3792;47.740;7.606;2023-07-29T09:02:24;24.20;99.90
7502;DHT22;3792;47.740;7.606;2023-07-29T09:04:53;24.40;99.90
7502;DHT22;3792;47.740;7.606;2023-07-29T09:07:20;24.40;99.90
7502;DHT22;3792;47.740;7.606;2023-07-29T09:09:47;24.50;99.90
7502;DHT22;3792;47.740;7.606;2023-07-29T09:12:15;24.70;99.90
7502;DHT22;3792;47.740;7.606;2023-07-29T09:14:42;24.60;99.90
7502;DHT22;3792;47.740;7.606;2023-07-29T09:17:10;24.40;99.90
7502;DHT22;3792;47.740;7.606;2023-07-29T09:19:37;24.30;99.90
7502;DHT22;3792;47.740;7.606;2023-07-29T09:22:17;24.40;99.90
7502;DHT22;3792;47.740;7.606;2023-07-29T09:24:45;24.40;99.90
7502;DHT22;3792;47.740;7.606;2023-07-29T09:27:23;24.40;99.90
7502;DHT22;3792;47.740;7.606;2023-07-29T09:29:52;24.60;99.90
7502;DHT22;3792;47.740;7.606;2023-07-29T09:32:21;24.70;99.90
7502;DHT22;3792;47.740;7.606;2023-07-29T09:34:48;24.60;99.90
7502;DHT22;3792;47.740;7.606;2023-07-29T09:37:21;24.50;99.90
7502;DHT22;3792;47.740;7.606;2023-07-29T09:39:49;24.40;99.90
7502;DHT22;3792;47.740;7.606;2023-07-29T09:42:18;24.40;99.90
7502;DHT22;3792;47.740;7.606;2023-07-29T09:44:45;24.40;99.90
7502;DHT22;3792;47.740;7.606;2023-07-29T09:47:20;24.30;99.90
7502;DHT22;3792;47.740;7.606;2023-07-29T09:49:48;24.30;99.90
7502;DHT22;3792;47.740;7.606;2023-07-29T09:52:16;24.30;99.90
7502;DHT22;3792;47.740;7.606;2023-07-29T09:54:45;24.30;99.90
7502;DHT22;3792;47.740;7.606;2023-07-29T09:57:14;24.40;99.90
7502;DHT22;3792;47.740;7.606;2023-07-29T09:59:41;24.40;99.90
7502;DHT22;3792;47.740;7.606;2023-07-29T10:02:13;24.40;99.90
7502;DHT22;3792;47.740;7.606;2023-07-29T10:04:41;24.50;99.90
7502;DHT22;3792;47.740;7.606;2023-07-29T10:07:09;24.60;99.90
7502;DHT22;3792;47.740;7.606;2023-07-29T10:09:38;24.60;99.90
7502;DHT22;3792;47.740;7.606;2023-07-29T10:12:07;24.60;99.90
7502;DHT22;3792;47.740;7.606;2023-07-29T10:14:38;24.50;99.90
7502;DHT22;3792;47.740;7.606;2023-07-29T10:17:05;24.50;99.90
7502;DHT22;3792;47.740;7.606;2023-07-29T10:19:34;24.70;99.90
7502;DHT22;3792;47.740;7.606;2023-07-29T10:22:03;24.70;99.90
7502;DHT22;3792;47.740;7.606;2023-07-29T10:24:32;24.80;99.90
7502;DHT22;3792;47.740;7.606;2023-07-29T10:27:01;24.80;99.90
7502;DHT22;3792;47.740;7.606;2023-07-29T10:29:31;24.80;99.90
7502;DHT22;3792;47.740;7.606;2023-07-29T10:32:02;24.80;99.90
7502;DHT22;3792;47.740;7.606;2023-07-29T10:34:30;24.90;99.90
7502;DHT22;3792;47.740;7.606;2023-07-29T10:36:58;24.90;99.90
7502;DHT22;3792;47.740;7.606;2023-07-29T10:39:26;24.90;99.90
7502;DHT22;3792;47.740;7.606;2023-07-29T10:41:57;24.90;99.90
7502;DHT22;3792;47.740;7.606;2023-07-29T10:44:46;24.90;99.90
7502;DHT22;3792;47.740;7.606;2023-07-29T10:47:15;25.10;99.90
7502;DHT22;3792;47.740;7.606;2023-07-29T10:49:43;25.30;99.90
7502;DHT22;3792;47.740;7.606;2023-07-29T10:52:13;25.50;99.90
7502;DHT22;3792;47.740;7.606;2023-07-29T10:54:44;25.70;99.90
7502;DHT22;3792;47.740;7.606;2023-07-29T10:57:15;25.80;99.90
7502;DHT22;3792;47.740;7.606;2023-07-29T10:59:54;25.90;99.90
7502;DHT22;3792;47.740;7.606;2023-07-29T11:02:21;26.10;99.90
7502;DHT22;3792;47.740;7.606;2023-07-29T11:04:54;26.10;99.90
7502;DHT22;3792;47.740;7.606;2023-07-29T11:07:22;26.20;99.90
7502;DHT22;3792;47.740;7.606;2023-07-29T11:10:01;26.40;99.90
7502;DHT22;3792;47.740;7.606;2023-07-29T11:12:43;26.60;99.90
7502;DHT22;3792;47.740;7.606;2023-07-29T11:15:23;26.70;99.90
7502;DHT22;3792;47.740;7.606;2023-07-29T11:17:52;26.80;99.90
7502;DHT22;3792;47.740;7.606;2023-07-29T11:20:22;26.90;99.90
7502;DHT22;3792;47.740;7.606;2023-07-29T11:22:50;26.70;99.90
7502;DHT22;3792;47.740;7.606;2023-07-29T11:25:18;26.50;99.90
7502;DHT22;3792;47.740;7.606;2023-07-29T11:27:45;26.40;99.90
7502;DHT22;3792;47.740;7.606;2023-07-29T11:30:14;26.50;99.90
7502;DHT22;3792;47.740;7.606;2023-07-29T11:32:44;26.40;99.90
7502;DHT22;3792;47.740;7.606;2023-07-29T11:35:12;26.30;99.90
7502;DHT22;3792;47.740;7.606;2023-07-29T11:37:41;26.30;99.90
7502;DHT22;3792;47.740;7.606;2023-07-29T11:40:14;26.30;99.90
7502;DHT22;3792;47.740;7.606;2023-07-29T11:42:41;26.20;99.90
7502;DHT22;3792;47.740;7.606;2023-07-29T11:45:09;26.10;99.90
7502;DHT22;3792;47.740;7.606;2023-07-29T11:47:36;26.10;99.90
7502;DHT22;3792;47.740;7.606;2023-07-29T11:50:07;26.20;99.90
7502;DHT22;3792;47.740;7.606;2023-07-29T11:52:35;26.20;99.90
7502;DHT22;3792;47.740;7.606;2023-07-29T11:55:04;26.20;99.90
7502;DHT22;3792;47.740;7.606;2023-07-29T11:57:32;26.10;99.90
7502;DHT22;3792;47.740;7.606;2023-07-29T12:00:02;26.00;99.90
7502;DHT22;3792;47.740;7.606;2023-07-29T12:02:30;25.90;99.90
7502;DHT22;3792;47.740;7.606;2023-07-29T12:04:57;26.00;99.90
7502;DHT22;3792;47.740;7.606;2023-07-29T12:07:26;26.00;99.90
7502;DHT22;3792;47.740;7.606;2023-07-29T12:09:53;26.00;99.90
7502;DHT22;3792;47.740;7.606;2023-07-29T12:12:22;25.90;99.90
7502;DHT22;3792;47.740;7.606;2023-07-29T12:14:50;25.90;99.90
7502;DHT22;3792;47.740;7.606;2023-07-29T12:17:18;25.90;99.90
7502;DHT22;3792;47.740;7.606;2023-07-29T12:19:45;25.90;99.90
7502;DHT22;3792;47.740;7.606;2023-07-29T12:22:17;25.90;99.90
7502;DHT22;3792;47.740;7.606;2023-07-29T12:24:45;26.00;99.90
7502;DHT22;3792;47.740;7.606;2023-07-29T12:27:13;26.00;99.90
7502;DHT22;3792;47.740;7.606;2023-07-29T12:29:41;26.00;99.90
7502;DHT22;3792;47.740;7.606;2023-07-29T12:32:09;26.00;99.90
7502;DHT22;3792;47.740;7.606;2023-07-29T12:34:38;26.00;99.90
7502;DHT22;3792;47.740;7.606;2023-07-29T12:37:07;25.90;99.90
7502;DHT22;3792;47.740;7.606;2023-07-29T12:39:38;25.70;99.90
7502;DHT22;3792;47.740;7.606;2023-07-29T12:42:08;25.60;99.90
7502;DHT22;3792;47.740;7.606;2023-07-29T12:44:36;25.50;99.90
7502;DHT22;3792;47.740;7.606;2023-07-29T12:47:05;25.40;99.90
7502;DHT22;3792;47.740;7.606;2023-07-29T12:49:34;25.30;99.90
7502;DHT22;3792;47.740;7.606;2023-07-29T12:52:03;25.30;99.90
7502;DHT22;3792;47.740;7.606;2023-07-29T12:54:30;25.20;99.90
7502;DHT22;3792;47.740;7.606;2023-07-29T12:56:57;25.10;99.90
7502;DHT22;3792;47.740;7.606;2023-07-29T12:59:25;25.00;99.90
7502;DHT22;3792;47.740;7.606;2023-07-29T13:01:52;25.00;99.90
7502;DHT22;3792;47.740;7.606;2023-07-29T13:04:23;25.00;99.90
7502;DHT22;3792;47.740;7.606;2023-07-29T13:06:50;25.00;99.90
7502;DHT22;3792;47.740;7.606;2023-07-29T13:09:17;25.00;99.90
7502;DHT22;3792;47.740;7.606;2023-07-29T13:11:44;25.00;99.90
7502;DHT22;3792;47.740;7.606;2023-07-29T13:14:11;25.00;99.90
7502;DHT22;3792;47.740;7.606;2023-07-29T13:16:40;25.00;99.90
7502;DHT22;3792;47.740;7.606;2023-07-29T13:19:07;25.10;99.90
7502;DHT22;3792;47.740;7.606;2023-07-29T13:21:34;25.00;99.90
7502;DHT22;3792;47.740;7.606;2023-07-29T13:24:01;25.00;99.90
7502;DHT22;3792;47.740;7.606;2023-07-29T13:26:28;24.90;99.90
7502;DHT22;3792;47.740;7.606;2023-07-29T13:28:55;25.00;99.90
7502;DHT22;3792;47.740;7.606;2023-07-29T13:31:22;25.00;99.90
7502;DHT22;3792;47.740;7.606;2023-07-29T13:33:50;25.00;99.90
7502;DHT22;3792;47.740;7.606;2023-07-29T13:36:17;25.00;99.90
7502;DHT22;3792;47.740;7.606;2023-07-29T13:38:44;25.10;99.90
7502;DHT22;3792;47.740;7.606;2023-07-29T13:41:11;25.10;99.90
7502;DHT22;3792;47.740;7.606;2023-07-29T13:43:38;25.20;99.90
7502;DHT22;3792;47.740;7.606;2023-07-29T13:46:05;25.30;99.90
7502;DHT22;3792;47.740;7.606;2023-07-29T13:48:32;25.30;99.90
7502;DHT22;3792;47.740;7.606;2023-07-29T13:51:03;25.30;99.90
7502;DHT22;3792;47.740;7.606;2023-07-29T13:53:30;25.10;99.90
7502;DHT22;3792;47.740;7.606;2023-07-29T13:55:57;25.10;99.90
7502;DHT22;3792;47.740;7.606;2023-07-29T13:58:24;25.00;99.90
7502;DHT22;3792;47.740;7.606;2023-07-29T14:00:51;25.00;99.90
7502;DHT22;3792;47.740;7.606;2023-07-29T14:03:18;24.90;99.90
7502;DHT22;3792;47.740;7.606;2023-07-29T14:05:46;24.80;99.90
7502;DHT22;3792;47.740;7.606;2023-07-29T14:08:14;24.80;99.90
7502;DHT22;3792;47.740;7.606;2023-07-29T14:10:41;24.70;99.90
7502;DHT22;3792;47.740;7.606;2023-07-29T14:13:08;24.60;99.90
7502;DHT22;3792;47.740;7.606;2023-07-29T14:15:35;24.50;99.90
7502;DHT22;3792;47.740;7.606;2023-07-29T14:18:02;24.30;99.90
7502;DHT22;3792;47.740;7.606;2023-07-29T14:20:29;24.20;99.90
7502;DHT22;3792;47.740;7.606;2023-07-29T14:22:56;24.20;99.90
7502;DHT22;3792;47.740;7.606;2023-07-29T14:25:25;24.20;99.90
7502;DHT22;3792;47.740;7.606;2023-07-29T14:27:52;24.10;99.90
7502;DHT22;3792;47.740;7.606;2023-07-29T14:30:19;24.00;99.90
7502;DHT22;3792;47.740;7.606;2023-07-29T14:32:46;23.90;99.90
7502;DHT22;3792;47.740;7.606;2023-07-29T14:35:13;23.70;99.90
7502;DHT22;3792;47.740;7.606;2023-07-29T14:37:40;23.50;99.90
7502;DHT22;3792;47.740;7.606;2023-07-29T14:40:08;23.40;99.90
7502;DHT22;3792;47.740;7.606;2023-07-29T14:42:36;23.30;99.90
7502;DHT22;3792;47.740;7.606;2023-07-29T14:45:04;23.20;99.90
7502;DHT22;3792;47.740;7.606;2023-07-29T14:47:31;23.10;99.90
7502;DHT22;3792;47.740;7.606;2023-07-29T14:50:00;23.00;99.90
7502;DHT22;3792;47.740;7.606;2023-07-29T14:52:30;23.00;99.90
7502;DHT22;3792;47.740;7.606;2023-07-29T14:54:57;22.90;99.90
7502;DHT22;3792;47.740;7.606;2023-07-29T14:57:24;22.80;99.90
7502;DHT22;3792;47.740;7.606;2023-07-29T14:59:53;22.80;99.90
7502;DHT22;3792;47.740;7.606;2023-07-29T15:02:20;22.80;99.90
7502;DHT22;3792;47.740;7.606;2023-07-29T15:04:48;22.70;99.90
7502;DHT22;3792;47.740;7.606;2023-07-29T15:07:15;22.60;99.90
7502;DHT22;3792;47.740;7.606;2023-07-29T15:09:42;22.60;99.90
7502;DHT22;3792;47.740;7.606;2023-07-29T15:12:11;22.60;99.90
7502;DHT22;3792;47.740;7.606;2023-07-29T15:14:39;22.50;99.90
7502;DHT22;3792;47.740;7.606;2023-07-29T15:17:09;22.50;99.90
7502;DHT22;3792;47.740;7.606;2023-07-29T15:19:37;22.60;99.90
7502;DHT22;3792;47.740;7.606;2023-07-29T15:22:04;22.60;99.90
7502;DHT22;3792;47.740;7.606;2023-07-29T15:24:31;22.60;99.90
7502;DHT22;3792;47.740;7.606;2023-07-29T15:26:59;22.60;99.90
7502;DHT22;3792;47.740;7.606;2023-07-29T15:29:27;22.40;99.90
7502;DHT22;3792;47.740;7.606;2023-07-29T15:31:54;22.40;99.90
7502;DHT22;3792;47.740;7.606;2023-07-29T15:34:23;22.40;99.90
7502;DHT22;3792;47.740;7.606;2023-07-29T15:36:51;22.40;99.90
7502;DHT22;3792;47.740;7.606;2023-07-29T15:39:18;22.30;99.90
7502;DHT22;3792;47.740;7.606;2023-07-29T15:41:46;22.30;99.90
7502;DHT22;3792;47.740;7.606;2023-07-29T15:44:13;22.30;99.90
7502;DHT22;3792;47.740;7.606;2023-07-29T15:46:40;22.30;99.90
7502;DHT22;3792;47.740;7.606;2023-07-29T15:49:08;22.30;99.90
7502;DHT22;3792;47.740;7.606;2023-07-29T15:51:37;22.10;99.90
7502;DHT22;3792;47.740;7.606;2023-07-29T15:54:04;22.10;99.90
7502;DHT22;3792;47.740;7.606;2023-07-29T15:56:31;22.00;99.90
7502;DHT22;3792;47.740;7.606;2023-07-29T15:59:01;22.10;99.90
7502;DHT22;3792;47.740;7.606;2023-07-29T16:01:29;22.10;99.90
7502;DHT22;3792;47.740;7.606;2023-07-29T16:03:56;22.10;99.90
7502;DHT22;3792;47.740;7.606;2023-07-29T16:06:25;22.20;99.90
7502;DHT22;3792;47.740;7.606;2023-07-29T16:08:55;22.20;99.90